Time;durP1;ratioP1;P1;durP2;ratioP2;P2;SDS_P1;SDS_P2;PMS_P1;PMS_P2;Temp;Humidity;BMP_temperature;BMP_pressure;BME280_temperature;BME280_humidity;BME280_pressure;Samples;Min_cycle;Max_cycle;Signal;HPM_P1;HPM_P2
2023/05/08 00:00:24;;;;;;;13.00;10.23;;;;;;;;;;5014796;28;20447;-70
2023/05/08 00:02:51;;;;;;;10.80;9.90;;;;;;;;;;5014692;28;20484;-69
2023/05/08 00:05:18;;;;;;;11.43;10.40;;;;;;;;;;5014745;28;20450;-70
2023/05/08 00:07:46;;;;;;;10.70;9.70;;;;;;;;;;5014747;28;20499;-69
2023/05/08 00:10:13;;;;;;;10.80;9.80;;;;;;;;;;5014443;28;20454;-69
2023/05/08 00:12:40;;;;;;;11.30;10.40;;;;;;;;;;5014173;28;20932;-70
2023/05/08 00:15:08;;;;;;;10.50;9.53;;;;;;;;;;5014143;28;20458;-69
2023/05/08 00:17:36;;;;;;;10.57;9.53;;;;;;;;;;5014174;28;20464;-69
2023/05/08 00:20:04;;;;;;;11.00;9.87;;;;;;;;;;5014450;28;20534;-69
2023/05/08 00:22:31;;;;;;;12.00;10.80;;;;;;;;;;5014111;28;20462;-69
2023/05/08 00:24:58;;;;;;;11.10;10.10;;;;;;;;;;5013978;28;20451;-69
2023/05/08 00:27:25;;;;;;;10.30;9.27;;;;;;;;;;5014006;28;20480;-69
2023/05/08 00:29:52;;;;;;;13.80;9.70;;;;;;;;;;5014434;28;20804;-69
2023/05/08 00:32:20;;;;;;;11.50;10.50;;;;;;;;;;5014214;28;20458;-69
2023/05/08 00:34:48;;;;;;;10.77;9.77;;;;;;;;;;5014125;28;20451;-69
2023/05/08 00:37:16;;;;;;;10.63;9.60;;;;;;;;;;5013984;28;21000;-69
2023/05/08 00:39:43;;;;;;;9.80;8.80;;;;;;;;;;5014203;28;20842;-69
2023/05/08 00:42:10;;;;;;;10.30;9.00;;;;;;;;;;5013796;28;20457;-69
2023/05/08 00:44:38;;;;;;;11.07;9.23;;;;;;;;;;5013332;28;20453;-70
2023/05/08 00:47:06;;;;;;;10.77;9.87;;;;;;;;;;5013978;28;20494;-69
2023/05/08 00:49:34;;;;;;;10.10;9.10;;;;;;;;;;5013958;28;20456;-70
2023/05/08 00:52:07;;;;;;;10.03;9.13;;;;;;;;;;5014007;28;20450;-69
2023/05/08 00:54:35;;;;;;;10.50;9.50;;;;;;;;;;5013961;28;20438;-69
2023/05/08 00:57:03;;;;;;;10.87;9.90;;;;;;;;;;5013635;28;20498;-69
2023/05/08 00:59:30;;;;;;;10.83;9.83;;;;;;;;;;5013483;28;20456;-70
2023/05/08 01:01:57;;;;;;;11.47;10.37;;;;;;;;;;5013688;28;20468;-69
2023/05/08 01:04:25;;;;;;;11.37;10.20;;;;;;;;;;5013886;28;20448;-70
2023/05/08 01:06:52;;;;;;;11.17;10.13;;;;;;;;;;5013207;28;20482;-70
2023/05/08 01:09:21;;;;;;;10.73;9.73;;;;;;;;;;5013183;28;20545;-70
2023/05/08 01:11:50;;;;;;;10.70;9.70;;;;;;;;;;5014066;28;20454;-70
2023/05/08 01:14:21;;;;;;;10.73;9.70;;;;;;;;;;5013706;28;20799;-70
2023/05/08 01:16:54;;;;;;;10.70;9.80;;;;;;;;;;5014059;28;20431;-70
2023/05/08 01:19:33;;;;;;;10.30;9.40;;;;;;;;;;5013651;28;20425;-71
2023/05/08 01:22:05;;;;;;;11.47;10.47;;;;;;;;;;5013388;28;20440;-69
2023/05/08 01:24:43;;;;;;;10.83;9.90;;;;;;;;;;5013637;28;20449;-69
2023/05/08 01:27:22;;;;;;;10.57;9.57;;;;;;;;;;5013775;28;20469;-70
2023/05/08 01:30:03;;;;;;;10.17;9.27;;;;;;;;;;5013718;28;20446;-70
2023/05/08 01:32:35;;;;;;;11.13;10.00;;;;;;;;;;5014173;28;20756;-69
2023/05/08 01:35:10;;;;;;;10.67;9.67;;;;;;;;;;5013545;28;20441;-70
2023/05/08 01:37:39;;;;;;;11.00;10.00;;;;;;;;;;5013628;28;20480;-69
2023/05/08 01:40:11;;;;;;;11.33;9.87;;;;;;;;;;5013438;28;20472;-69
2023/05/08 01:42:44;;;;;;;11.70;10.70;;;;;;;;;;5013518;28;20456;-70
2023/05/08 01:45:14;;;;;;;11.93;10.43;;;;;;;;;;5013335;28;20930;-69
2023/05/08 01:47:45;;;;;;;11.10;10.00;;;;;;;;;;5013004;28;21010;-69
2023/05/08 01:50:15;;;;;;;12.50;10.60;;;;;;;;;;5013599;28;20431;-70
2023/05/08 01:52:44;;;;;;;11.00;9.80;;;;;;;;;;5013373;28;20452;-70
2023/05/08 01:55:13;;;;;;;11.50;10.20;;;;;;;;;;5013306;28;20453;-70
2023/05/08 01:57:43;;;;;;;11.17;10.17;;;;;;;;;;5016542;28;20445;-69
2023/05/08 02:00:11;;;;;;;11.47;10.40;;;;;;;;;;5017541;28;20475;-69
2023/05/08 02:02:38;;;;;;;12.47;11.20;;;;;;;;;;5017087;28;20468;-69
2023/05/08 02:05:08;;;;;;;11.63;10.40;;;;;;;;;;5016843;28;20448;-69
2023/05/08 02:07:36;;;;;;;12.60;11.40;;;;;;;;;;5016834;28;20504;-69
2023/05/08 02:10:04;;;;;;;11.40;10.40;;;;;;;;;;5017012;28;20553;-71
2023/05/08 02:12:32;;;;;;;10.67;9.73;;;;;;;;;;5016493;28;20945;-69
2023/05/08 02:15:00;;;;;;;14.00;9.60;;;;;;;;;;5017423;28;20450;-69
2023/05/08 02:17:28;;;;;;;11.03;10.07;;;;;;;;;;5016356;28;20939;-70
2023/05/08 02:19:56;;;;;;;10.30;9.43;;;;;;;;;;5016695;28;20461;-69
2023/05/08 02:22:25;;;;;;;11.70;10.60;;;;;;;;;;5016584;28;20449;-69
2023/05/08 02:24:55;;;;;;;12.80;11.50;;;;;;;;;;5016346;28;20453;-69
2023/05/08 02:27:22;;;;;;;10.63;9.60;;;;;;;;;;5016460;28;20477;-69
2023/05/08 02:29:51;;;;;;;10.77;9.67;;;;;;;;;;5016254;28;20462;-69
2023/05/08 02:32:20;;;;;;;12.00;10.23;;;;;;;;;;5016323;28;20807;-69
2023/05/08 02:34:47;;;;;;;12.20;11.10;;;;;;;;;;5016399;28;20449;-69
2023/05/08 02:37:15;;;;;;;11.70;10.60;;;;;;;;;;5016232;28;20477;-69
2023/05/08 02:39:44;;;;;;;11.50;10.50;;;;;;;;;;5016794;28;20427;-69
2023/05/08 02:42:12;;;;;;;13.60;11.17;;;;;;;;;;5016227;28;20461;-69
2023/05/08 02:44:39;;;;;;;11.10;10.13;;;;;;;;;;5015926;28;20965;-69
2023/05/08 02:47:10;;;;;;;11.60;10.50;;;;;;;;;;5016269;28;20490;-69
2023/05/08 02:49:44;;;;;;;12.00;10.90;;;;;;;;;;5015954;28;20437;-69
2023/05/08 02:52:13;;;;;;;11.83;10.70;;;;;;;;;;5016294;28;20437;-69
2023/05/08 02:54:43;;;;;;;12.83;11.63;;;;;;;;;;5015894;28;20540;-69
2023/05/08 02:57:15;;;;;;;12.50;11.30;;;;;;;;;;5015925;28;20454;-69
2023/05/08 02:59:44;;;;;;;11.50;10.50;;;;;;;;;;5016221;28;20430;-69
2023/05/08 03:02:14;;;;;;;10.67;9.67;;;;;;;;;;5015784;28;20445;-70
2023/05/08 03:04:46;;;;;;;9.73;8.83;;;;;;;;;;5015946;28;20443;-69
2023/05/08 03:07:13;;;;;;;12.43;11.17;;;;;;;;;;5015597;28;20536;-69
2023/05/08 03:09:42;;;;;;;11.53;10.33;;;;;;;;;;5015841;28;20779;-69
2023/05/08 03:12:11;;;;;;;11.03;9.93;;;;;;;;;;5015800;28;20457;-69
2023/05/08 03:14:43;;;;;;;11.37;10.17;;;;;;;;;;5015944;28;20440;-69
2023/05/08 03:17:13;;;;;;;11.93;10.73;;;;;;;;;;5015969;28;20432;-69
2023/05/08 03:19:42;;;;;;;11.37;10.17;;;;;;;;;;5015334;28;20983;-69
2023/05/08 03:22:10;;;;;;;11.87;10.80;;;;;;;;;;5015491;28;20446;-69
2023/05/08 03:24:39;;;;;;;11.13;10.10;;;;;;;;;;5015685;28;20445;-69
2023/05/08 03:27:06;;;;;;;10.53;9.53;;;;;;;;;;5015289;28;20442;-70
2023/05/08 03:29:34;;;;;;;10.80;9.80;;;;;;;;;;5015352;28;20954;-70
2023/05/08 03:32:03;;;;;;;12.33;11.13;;;;;;;;;;5015376;28;20452;-70
2023/05/08 03:34:31;;;;;;;12.03;10.83;;;;;;;;;;5015284;28;20446;-70
2023/05/08 03:36:58;;;;;;;10.80;9.77;;;;;;;;;;5015220;28;20503;-69
2023/05/08 03:39:26;;;;;;;11.90;10.70;;;;;;;;;;5014908;28;20442;-70
2023/05/08 03:41:53;;;;;;;12.70;10.90;;;;;;;;;;5015081;28;20523;-70
2023/05/08 03:44:20;;;;;;;11.60;10.50;;;;;;;;;;5015331;28;20458;-70
2023/05/08 03:46:49;;;;;;;11.43;10.23;;;;;;;;;;5014987;28;20451;-70
2023/05/08 03:49:18;;;;;;;12.27;11.10;;;;;;;;;;5015092;28;20484;-70
2023/05/08 03:51:45;;;;;;;11.47;10.37;;;;;;;;;;5013780;28;20453;-70
2023/05/08 03:54:12;;;;;;;12.10;10.33;;;;;;;;;;5014501;28;20455;-70
2023/05/08 03:56:39;;;;;;;12.33;9.50;;;;;;;;;;5014684;28;20441;-70
2023/05/08 03:59:10;;;;;;;11.27;9.87;;;;;;;;;;5014483;28;20454;-70
2023/05/08 04:01:40;;;;;;;12.30;10.93;;;;;;;;;;5014794;28;20452;-70
2023/05/08 04:04:10;;;;;;;11.60;10.37;;;;;;;;;;5014592;28;20782;-70
2023/05/08 04:06:41;;;;;;;11.43;10.23;;;;;;;;;;5014508;28;20452;-70
2023/05/08 04:09:09;;;;;;;11.47;10.37;;;;;;;;;;5014733;28;20469;-71
2023/05/08 04:11:39;;;;;;;11.27;10.17;;;;;;;;;;5014514;28;20476;-71
2023/05/08 04:14:06;;;;;;;12.33;11.00;;;;;;;;;;5014414;28;20835;-70
2023/05/08 04:16:36;;;;;;;12.03;10.93;;;;;;;;;;5014218;28;20445;-70
2023/05/08 04:19:05;;;;;;;12.47;11.20;;;;;;;;;;5013766;28;20447;-70
2023/05/08 04:21:34;;;;;;;12.47;11.33;;;;;;;;;;5014261;28;20475;-70
2023/05/08 04:24:05;;;;;;;12.40;10.27;;;;;;;;;;5013883;28;20953;-70
2023/05/08 04:26:32;;;;;;;11.87;10.60;;;;;;;;;;5013999;28;20458;-70
2023/05/08 04:29:00;;;;;;;13.80;12.40;;;;;;;;;;5014147;28;20488;-70
2023/05/08 04:31:28;;;;;;;10.73;9.73;;;;;;;;;;5014289;28;20936;-70
2023/05/08 04:33:56;;;;;;;13.47;11.00;;;;;;;;;;5013709;28;20445;-70
2023/05/08 04:36:24;;;;;;;12.13;10.63;;;;;;;;;;5013829;28;20452;-70
2023/05/08 04:38:52;;;;;;;11.20;10.13;;;;;;;;;;5013526;28;20551;-76
2023/05/08 04:41:20;;;;;;;10.93;9.93;;;;;;;;;;5014078;28;20449;-74
2023/05/08 04:43:47;;;;;;;10.70;9.60;;;;;;;;;;5013804;28;20449;-71
2023/05/08 04:46:15;;;;;;;11.50;10.30;;;;;;;;;;5013927;28;20552;-71
2023/05/08 04:48:42;;;;;;;13.20;10.60;;;;;;;;;;5013505;28;20994;-71
2023/05/08 04:51:09;;;;;;;10.70;9.70;;;;;;;;;;5013770;28;20817;-71
2023/05/08 04:53:36;;;;;;;11.83;10.73;;;;;;;;;;5013792;28;20799;-71
2023/05/08 04:56:03;;;;;;;11.60;9.90;;;;;;;;;;5013644;28;20453;-71
2023/05/08 04:58:32;;;;;;;10.90;9.63;;;;;;;;;;5013710;28;20453;-71
2023/05/08 05:01:02;;;;;;;16.80;11.40;;;;;;;;;;5013476;28;20541;-70
2023/05/08 05:03:29;;;;;;;11.83;10.63;;;;;;;;;;5013563;28;20425;-70
2023/05/08 05:06:00;;;;;;;14.20;11.73;;;;;;;;;;5013288;28;20946;-69
2023/05/08 05:08:27;;;;;;;11.13;10.17;;;;;;;;;;5013652;28;20504;-71
2023/05/08 05:10:55;;;;;;;11.40;10.27;;;;;;;;;;5013190;28;20970;-71
2023/05/08 05:13:22;;;;;;;12.50;10.87;;;;;;;;;;5013291;28;20449;-71
2023/05/08 05:15:53;;;;;;;12.30;11.00;;;;;;;;;;5013485;28;20446;-71
2023/05/08 05:18:20;;;;;;;11.47;10.37;;;;;;;;;;5014053;28;20516;-71
2023/05/08 05:20:47;;;;;;;10.33;9.33;;;;;;;;;;5013622;28;20450;-71
2023/05/08 05:23:14;;;;;;;9.70;8.80;;;;;;;;;;5013469;28;20811;-71
2023/05/08 05:25:41;;;;;;;11.90;10.77;;;;;;;;;;5013517;28;20454;-70
2023/05/08 05:28:09;;;;;;;11.53;10.53;;;;;;;;;;5013295;28;20482;-71
2023/05/08 05:30:36;;;;;;;11.50;10.30;;;;;;;;;;5014771;28;20446;-70
2023/05/08 05:33:04;;;;;;;11.60;10.50;;;;;;;;;;5017003;28;20457;-71
2023/05/08 05:35:32;;;;;;;11.23;10.03;;;;;;;;;;5017181;28;20447;-70
2023/05/08 05:37:59;;;;;;;11.13;10.13;;;;;;;;;;5017153;28;20632;-71
2023/05/08 05:40:26;;;;;;;11.73;10.53;;;;;;;;;;5017051;28;20437;-71
2023/05/08 05:42:53;;;;;;;12.80;10.93;;;;;;;;;;5017040;28;20460;-70
2023/05/08 05:45:20;;;;;;;13.67;12.30;;;;;;;;;;5016967;28;20969;-70
2023/05/08 05:47:49;;;;;;;10.80;9.80;;;;;;;;;;5017189;28;20511;-71
2023/05/08 05:50:18;;;;;;;21.93;19.60;;;;;;;;;;5017166;28;20448;-70
2023/05/08 05:52:45;;;;;;;26.53;22.63;;;;;;;;;;5017203;28;20453;-70
2023/05/08 05:55:12;;;;;;;11.40;10.20;;;;;;;;;;5017090;28;20446;-70
2023/05/08 05:57:40;;;;;;;12.10;10.90;;;;;;;;;;5016803;28;20450;-70
2023/05/08 06:00:08;;;;;;;11.37;10.37;;;;;;;;;;5016662;28;20448;-70
2023/05/08 06:02:36;;;;;;;11.90;10.70;;;;;;;;;;5017161;28;20458;-71
2023/05/08 06:05:03;;;;;;;11.83;10.73;;;;;;;;;;5016602;28;20537;-71
2023/05/08 06:07:32;;;;;;;11.17;10.07;;;;;;;;;;5016788;28;20487;-70
2023/05/08 06:09:59;;;;;;;13.13;10.83;;;;;;;;;;5016439;28;20543;-70
2023/05/08 06:12:27;;;;;;;11.67;10.57;;;;;;;;;;5017235;28;20991;-71
2023/05/08 06:14:54;;;;;;;11.90;10.73;;;;;;;;;;5016734;28;20489;-70
2023/05/08 06:17:21;;;;;;;14.80;10.80;;;;;;;;;;5016826;28;20784;-70
2023/05/08 06:19:49;;;;;;;12.30;11.10;;;;;;;;;;5016345;28;20481;-70
2023/05/08 06:22:17;;;;;;;15.77;11.60;;;;;;;;;;5016718;28;20818;-70
2023/05/08 06:24:45;;;;;;;11.60;10.40;;;;;;;;;;5016832;28;20875;-70
2023/05/08 06:27:13;;;;;;;12.13;11.03;;;;;;;;;;5016866;28;20484;-70
2023/05/08 06:29:40;;;;;;;13.10;11.80;;;;;;;;;;5016760;28;20488;-70
2023/05/08 06:32:07;;;;;;;15.53;10.80;;;;;;;;;;5016432;28;20541;-70
2023/05/08 06:34:34;;;;;;;12.47;11.20;;;;;;;;;;5016254;28;20453;-70
2023/05/08 06:37:01;;;;;;;12.23;10.70;;;;;;;;;;5016580;28;20878;-70
2023/05/08 06:39:29;;;;;;;13.57;11.23;;;;;;;;;;5016902;28;20438;-70
2023/05/08 06:41:57;;;;;;;11.97;10.67;;;;;;;;;;5015683;28;20958;-70
2023/05/08 06:44:24;;;;;;;12.63;11.43;;;;;;;;;;5016213;28;20446;-70
2023/05/08 06:46:52;;;;;;;11.97;10.87;;;;;;;;;;5016591;28;20534;-70
2023/05/08 06:49:19;;;;;;;13.97;11.20;;;;;;;;;;5016004;28;20479;-70
2023/05/08 06:51:46;;;;;;;13.20;12.00;;;;;;;;;;5016409;28;20450;-70
2023/05/08 06:54:13;;;;;;;15.93;14.07;;;;;;;;;;5015963;28;20452;-70
2023/05/08 06:56:40;;;;;;;16.10;11.70;;;;;;;;;;5016113;28;20806;-70
2023/05/08 06:59:09;;;;;;;15.60;12.67;;;;;;;;;;5016142;28;20458;-70
2023/05/08 07:01:37;;;;;;;13.40;12.10;;;;;;;;;;5016179;28;20446;-70
2023/05/08 07:04:04;;;;;;;12.13;11.07;;;;;;;;;;5015822;28;20446;-70
2023/05/08 07:06:32;;;;;;;12.90;11.60;;;;;;;;;;5015591;28;20944;-70
2023/05/08 07:08:59;;;;;;;14.50;12.03;;;;;;;;;;5015943;28;20829;-69
2023/05/08 07:11:26;;;;;;;13.00;11.80;;;;;;;;;;5015995;28;20920;-69
2023/05/08 07:13:53;;;;;;;17.80;11.50;;;;;;;;;;5015712;28;20789;-69
2023/05/08 07:16:22;;;;;;;12.27;11.17;;;;;;;;;;5015662;28;20443;-69
2023/05/08 07:18:49;;;;;;;12.20;11.10;;;;;;;;;;5015622;28;20449;-69
2023/05/08 07:21:17;;;;;;;12.67;11.47;;;;;;;;;;5015469;28;20454;-70
2023/05/08 07:23:44;;;;;;;12.87;11.63;;;;;;;;;;5015578;28;20533;-70
2023/05/08 07:26:12;;;;;;;13.23;11.70;;;;;;;;;;5015073;28;20453;-70
2023/05/08 07:28:39;;;;;;;14.37;12.97;;;;;;;;;;5015041;28;20536;-69
2023/05/08 07:31:07;;;;;;;13.57;12.27;;;;;;;;;;5014915;28;20963;-70
2023/05/08 07:33:35;;;;;;;12.30;11.20;;;;;;;;;;5015344;28;20500;-70
2023/05/08 07:36:02;;;;;;;15.67;11.90;;;;;;;;;;5015136;28;20454;-70
2023/05/08 07:38:29;;;;;;;12.43;11.23;;;;;;;;;;5014717;28;20478;-70
2023/05/08 07:40:58;;;;;;;14.43;12.93;;;;;;;;;;5015064;28;20829;-70
2023/05/08 07:43:25;;;;;;;12.80;11.53;;;;;;;;;;5015149;28;20455;-70
2023/05/08 07:45:52;;;;;;;12.60;11.40;;;;;;;;;;5015034;28;20447;-70
2023/05/08 07:48:20;;;;;;;13.17;11.97;;;;;;;;;;5014699;28;20450;-70
2023/05/08 07:50:50;;;;;;;14.27;12.27;;;;;;;;;;5015102;28;20533;-70
2023/05/08 07:53:17;;;;;;;14.20;12.83;;;;;;;;;;5014722;28;20446;-70
2023/05/08 07:55:44;;;;;;;13.50;12.20;;;;;;;;;;5014518;28;20446;-70
2023/05/08 07:58:11;;;;;;;12.50;11.40;;;;;;;;;;5014592;28;20449;-70
2023/05/08 08:00:39;;;;;;;14.47;13.07;;;;;;;;;;5014701;28;20455;-69
2023/05/08 08:03:06;;;;;;;13.83;11.23;;;;;;;;;;5014832;28;20447;-70
2023/05/08 08:05:34;;;;;;;16.70;12.47;;;;;;;;;;5015098;28;20513;-70
2023/05/08 08:08:02;;;;;;;13.93;11.80;;;;;;;;;;5014870;28;20447;-70
2023/05/08 08:10:30;;;;;;;14.33;12.67;;;;;;;;;;5014185;28;20635;-70
2023/05/08 08:12:57;;;;;;;13.97;12.57;;;;;;;;;;5014612;28;20796;-69
2023/05/08 08:15:24;;;;;;;14.67;13.27;;;;;;;;;;5014965;28;20443;-70
2023/05/08 08:17:51;;;;;;;15.80;14.23;;;;;;;;;;5015015;28;20535;-70
2023/05/08 08:20:19;;;;;;;13.90;12.63;;;;;;;;;;5013998;28;20454;-70
2023/05/08 08:22:46;;;;;;;14.20;12.90;;;;;;;;;;5014346;28;20932;-70
2023/05/08 08:25:14;;;;;;;14.47;13.13;;;;;;;;;;5014341;28;20812;-70
2023/05/08 08:27:42;;;;;;;13.77;12.40;;;;;;;;;;5014247;28;20449;-70
2023/05/08 08:30:09;;;;;;;14.70;13.17;;;;;;;;;;5014548;28;20482;-70
2023/05/08 08:32:36;;;;;;;17.90;13.03;;;;;;;;;;5013385;28;20448;-70
2023/05/08 08:35:04;;;;;;;13.53;12.17;;;;;;;;;;5013766;28;20463;-70
2023/05/08 08:37:31;;;;;;;12.63;11.40;;;;;;;;;;5013792;28;20479;-70
2023/05/08 08:39:58;;;;;;;14.67;12.07;;;;;;;;;;5014044;28;20455;-70
2023/05/08 08:42:27;;;;;;;13.43;12.10;;;;;;;;;;5013847;28;20447;-70
2023/05/08 08:44:54;;;;;;;13.10;11.90;;;;;;;;;;5014223;28;20439;-70
2023/05/08 08:47:23;;;;;;;13.83;12.40;;;;;;;;;;5013907;28;20443;-70
2023/05/08 08:49:51;;;;;;;12.10;11.00;;;;;;;;;;5013551;28;20486;-70
2023/05/08 08:52:23;;;;;;;12.67;11.47;;;;;;;;;;5013501;28;20460;-70
2023/05/08 08:54:51;;;;;;;16.33;13.17;;;;;;;;;;5013596;28;20428;-70
2023/05/08 08:57:19;;;;;;;14.60;13.00;;;;;;;;;;5013437;28;20458;-70
2023/05/08 08:59:48;;;;;;;14.10;12.77;;;;;;;;;;5013875;28;20443;-70
2023/05/08 09:02:16;;;;;;;19.30;13.90;;;;;;;;;;5013710;28;20439;-70
2023/05/08 09:04:44;;;;;;;13.47;12.27;;;;;;;;;;5013190;28;20478;-70
2023/05/08 09:07:12;;;;;;;16.80;14.00;;;;;;;;;;5013412;28;20557;-70
2023/05/08 09:09:43;;;;;;;14.73;12.07;;;;;;;;;;5013678;28;20482;-71
2023/05/08 09:12:10;;;;;;;14.70;12.57;;;;;;;;;;5013792;28;20428;-70
2023/05/08 09:14:37;;;;;;;14.40;13.07;;;;;;;;;;5013651;28;20440;-70
2023/05/08 09:17:06;;;;;;;13.90;12.57;;;;;;;;;;5013575;28;20798;-70
2023/05/08 09:19:34;;;;;;;13.70;12.40;;;;;;;;;;5013793;28;20452;-71
2023/05/08 09:22:08;;;;;;;14.27;12.97;;;;;;;;;;5013481;28;20441;-70
2023/05/08 09:24:53;;;;;;;13.00;11.80;;;;;;;;;;5013886;28;20764;-70
2023/05/08 09:27:22;;;;;;;14.20;12.77;;;;;;;;;;5013129;28;20444;-70
2023/05/08 09:29:59;;;;;;;13.83;12.43;;;;;;;;;;5013079;28;20528;-70
2023/05/08 09:32:28;;;;;;;16.67;12.53;;;;;;;;;;5013033;28;20430;-70
2023/05/08 09:34:55;;;;;;;15.00;12.40;;;;;;;;;;5013812;28;20446;-70
2023/05/08 09:37:22;;;;;;;13.93;12.60;;;;;;;;;;5012962;28;20478;-70
2023/05/08 09:39:49;;;;;;;13.60;12.20;;;;;;;;;;5013456;28;20427;-70
2023/05/08 09:42:17;;;;;;;13.73;12.33;;;;;;;;;;5013513;28;20439;-70
2023/05/08 09:44:44;;;;;;;13.93;12.53;;;;;;;;;;5013525;28;20448;-69
2023/05/08 09:47:12;;;;;;;13.00;11.60;;;;;;;;;;5013156;28;20443;-70
2023/05/08 09:49:41;;;;;;;11.87;10.87;;;;;;;;;;5013417;28;20471;-70
2023/05/08 09:52:08;;;;;;;13.17;11.87;;;;;;;;;;5013136;28;20448;-70
2023/05/08 09:54:35;;;;;;;15.50;12.67;;;;;;;;;;5013548;28;20450;-71
2023/05/08 09:57:11;;;;;;;14.87;11.90;;;;;;;;;;5013627;28;20463;-69
2023/05/08 09:59:39;;;;;;;13.60;10.77;;;;;;;;;;5013162;28;20455;-69
2023/05/08 10:02:11;;;;;;;16.27;11.10;;;;;;;;;;5013109;28;20443;-69
2023/05/08 10:04:38;;;;;;;12.97;11.63;;;;;;;;;;5012872;28;20447;-69
2023/05/08 10:07:07;;;;;;;12.73;11.53;;;;;;;;;;5012814;28;20444;-69
2023/05/08 10:09:34;;;;;;;12.30;11.10;;;;;;;;;;5012729;28;20481;-69
2023/05/08 10:12:01;;;;;;;11.37;10.40;;;;;;;;;;5013317;28;20443;-69
2023/05/08 10:14:29;;;;;;;16.20;10.73;;;;;;;;;;5013460;28;20447;-69
2023/05/08 10:16:56;;;;;;;12.57;9.70;;;;;;;;;;5013448;28;20535;-69
2023/05/08 10:19:27;;;;;;;11.30;10.30;;;;;;;;;;5017057;28;20441;-69
2023/05/08 10:21:55;;;;;;;11.50;10.40;;;;;;;;;;5016825;28;20463;-69
2023/05/08 10:24:27;;;;;;;12.00;10.80;;;;;;;;;;5016518;28;20516;-69
2023/05/08 10:26:57;;;;;;;9.47;8.57;;;;;;;;;;5016609;28;20507;-69
2023/05/08 10:29:29;;;;;;;11.40;10.17;;;;;;;;;;5016135;28;20445;-70
2023/05/08 10:31:59;;;;;;;12.93;11.67;;;;;;;;;;5016043;28;20450;-70
2023/05/08 10:34:28;;;;;;;12.23;11.13;;;;;;;;;;5016490;28;20434;-70
2023/05/08 10:36:55;;;;;;;13.20;11.23;;;;;;;;;;5016101;28;20436;-70
2023/05/08 10:39:23;;;;;;;11.60;10.53;;;;;;;;;;5016819;28;20526;-70
2023/05/08 10:41:52;;;;;;;11.63;10.50;;;;;;;;;;5016535;28;20439;-71
2023/05/08 10:44:19;;;;;;;11.00;10.07;;;;;;;;;;5016239;28;20448;-70
2023/05/08 10:46:51;;;;;;;13.57;11.50;;;;;;;;;;5016424;28;20454;-70
2023/05/08 10:49:21;;;;;;;13.33;10.13;;;;;;;;;;5016104;28;20432;-70
2023/05/08 10:51:54;;;;;;;10.20;8.03;;;;;;;;;;5016063;28;20443;-70
2023/05/08 10:54:24;;;;;;;10.23;7.30;;;;;;;;;;5016007;28;20431;-71
2023/05/08 10:56:53;;;;;;;5.90;5.40;;;;;;;;;;5015736;28;20423;-71
2023/05/08 10:59:22;;;;;;;5.20;4.80;;;;;;;;;;5015856;28;20447;-70
2023/05/08 11:01:49;;;;;;;4.57;4.17;;;;;;;;;;5015589;28;20530;-70
2023/05/08 11:04:21;;;;;;;4.87;4.47;;;;;;;;;;5015810;28;20448;-70
2023/05/08 11:06:51;;;;;;;5.87;5.37;;;;;;;;;;5015823;28;20451;-70
2023/05/08 11:09:22;;;;;;;9.87;9.07;;;;;;;;;;5015414;28;20525;-70
2023/05/08 11:12:10;;;;;;;11.70;10.70;;;;;;;;;;5015465;28;20578;-70
2023/05/08 11:14:41;;;;;;;13.70;11.90;;;;;;;;;;5008212;28;20770;-70
2023/05/08 11:17:09;;;;;;;11.97;10.97;;;;;;;;;;5015385;28;20447;-70
2023/05/08 11:19:37;;;;;;;12.27;11.10;;;;;;;;;;5015487;28;20462;-70
2023/05/08 11:22:22;;;;;;;12.43;11.03;;;;;;;;;;5015194;28;20442;-70
2023/05/08 11:24:50;;;;;;;12.97;11.83;;;;;;;;;;5015805;28;20463;-70
2023/05/08 11:27:17;;;;;;;14.13;12.73;;;;;;;;;;5015103;28;20439;-70
2023/05/08 11:29:46;;;;;;;14.43;11.87;;;;;;;;;;5014665;28;20458;-69
2023/05/08 11:32:13;;;;;;;12.33;11.23;;;;;;;;;;5015259;28;20441;-72
2023/05/08 11:34:47;;;;;;;13.27;12.07;;;;;;;;;;5015220;28;20441;-72
2023/05/08 11:37:17;;;;;;;12.80;11.53;;;;;;;;;;5015344;28;20475;-70
2023/05/08 11:39:45;;;;;;;14.87;13.47;;;;;;;;;;5015173;28;20454;-70
2023/05/08 11:42:33;;;;;;;13.80;12.50;;;;;;;;;;5015136;28;20447;-70
2023/05/08 11:45:05;;;;;;;14.80;12.77;;;;;;;;;;5007314;28;20825;-71
2023/05/08 11:47:35;;;;;;;15.37;13.87;;;;;;;;;;5014850;28;20435;-69
2023/05/08 11:50:02;;;;;;;16.10;14.67;;;;;;;;;;5014581;28;20474;-70
2023/05/08 11:52:32;;;;;;;16.73;14.83;;;;;;;;;;5014053;28;20453;-70
2023/05/08 11:55:01;;;;;;;14.47;12.97;;;;;;;;;;5014415;28;20936;-70
2023/05/08 11:57:31;;;;;;;15.77;14.20;;;;;;;;;;5014661;28;20466;-70
2023/05/08 11:59:58;;;;;;;16.43;14.57;;;;;;;;;;5014352;28;20946;-70
2023/05/08 12:02:40;;;;;;;15.83;14.37;;;;;;;;;;5014718;28;20452;-70
2023/05/08 12:05:07;;;;;;;16.30;14.70;;;;;;;;;;5014505;28;20443;-71
2023/05/08 12:07:43;;;;;;;15.87;13.60;;;;;;;;;;5014710;28;20448;-70
2023/05/08 12:10:11;;;;;;;15.90;14.50;;;;;;;;;;5014002;28;20473;-70
2023/05/08 12:12:38;;;;;;;16.27;14.90;;;;;;;;;;5014530;28;20451;-70
2023/05/08 12:15:09;;;;;;;16.83;15.13;;;;;;;;;;5014118;28;20957;-70
2023/05/08 12:17:36;;;;;;;24.93;18.30;;;;;;;;;;5014132;28;20933;-70
2023/05/08 12:20:12;;;;;;;16.43;14.93;;;;;;;;;;5013962;28;20476;-70
2023/05/08 12:22:40;;;;;;;15.13;13.80;;;;;;;;;;5014070;28;20443;-70
2023/05/08 12:25:08;;;;;;;16.90;15.13;;;;;;;;;;5014114;28;20452;-71
2023/05/08 12:27:36;;;;;;;18.50;16.67;;;;;;;;;;5014002;28;20444;-70
2023/05/08 12:30:06;;;;;;;16.80;15.10;;;;;;;;;;5013822;28;20446;-70
2023/05/08 12:32:33;;;;;;;16.40;15.00;;;;;;;;;;5014038;28;20442;-70
2023/05/08 12:35:01;;;;;;;17.63;16.03;;;;;;;;;;5013523;28;20502;-70
2023/05/08 12:37:29;;;;;;;16.53;15.20;;;;;;;;;;5013508;28;20486;-70
2023/05/08 12:39:56;;;;;;;15.93;14.53;;;;;;;;;;5013361;28;20451;-70
2023/05/08 12:42:41;;;;;;;17.70;16.10;;;;;;;;;;5013901;28;20437;-69
2023/05/08 12:45:09;;;;;;;16.07;14.57;;;;;;;;;;5013555;28;20432;-71
2023/05/08 12:47:36;;;;;;;15.83;14.43;;;;;;;;;;5013957;28;20532;-69
2023/05/08 12:50:04;;;;;;;16.17;14.67;;;;;;;;;;5013410;28;20461;-70
2023/05/08 12:52:32;;;;;;;16.87;14.40;;;;;;;;;;5013354;28;20452;-70
2023/05/08 12:55:00;;;;;;;15.90;14.47;;;;;;;;;;5013671;28;20449;-70
2023/05/08 12:57:27;;;;;;;15.83;14.43;;;;;;;;;;5013724;28;20441;-70
2023/05/08 13:00:03;;;;;;;16.83;15.40;;;;;;;;;;5013713;28;20447;-70
2023/05/08 13:02:30;;;;;;;17.10;15.57;;;;;;;;;;5014051;28;20439;-70
2023/05/08 13:04:58;;;;;;;17.00;15.40;;;;;;;;;;5013250;28;20449;-70
2023/05/08 13:07:25;;;;;;;16.17;14.50;;;;;;;;;;5013866;28;20446;-69
2023/05/08 13:10:02;;;;;;;19.37;17.37;;;;;;;;;;5013223;28;20447;-69
2023/05/08 13:12:29;;;;;;;17.20;15.60;;;;;;;;;;5013956;28;20476;-69
2023/05/08 13:14:57;;;;;;;17.37;15.60;;;;;;;;;;5013444;28;20449;-69
2023/05/08 13:17:24;;;;;;;15.83;14.27;;;;;;;;;;5013102;28;20452;-69
2023/05/08 13:19:51;;;;;;;16.80;15.20;;;;;;;;;;5013865;28;20441;-69
2023/05/08 13:22:21;;;;;;;17.23;15.63;;;;;;;;;;5012991;28;20455;-69
2023/05/08 13:24:48;;;;;;;17.80;16.30;;;;;;;;;;5013741;28;20519;-69
2023/05/08 13:27:17;;;;;;;20.03;16.60;;;;;;;;;;5013339;28;20447;-69
2023/05/08 13:29:44;;;;;;;16.67;15.13;;;;;;;;;;5013413;28;20538;-69
2023/05/08 13:32:11;;;;;;;16.50;14.90;;;;;;;;;;5013039;28;21007;-69
2023/05/08 13:34:39;;;;;;;16.00;14.60;;;;;;;;;;5013246;28;20441;-69
2023/05/08 13:37:06;;;;;;;17.30;15.70;;;;;;;;;;5013189;28;20481;-69
2023/05/08 13:39:36;;;;;;;17.63;15.90;;;;;;;;;;5013270;28;20444;-69
2023/05/08 13:42:03;;;;;;;17.80;16.10;;;;;;;;;;5013365;28;20455;-69
2023/05/08 13:44:31;;;;;;;16.70;15.10;;;;;;;;;;5013430;28;20444;-69
2023/05/08 13:46:59;;;;;;;17.77;16.10;;;;;;;;;;5013293;28;20436;-69
2023/05/08 13:49:26;;;;;;;17.17;15.57;;;;;;;;;;5012791;28;20480;-69
2023/05/08 13:51:53;;;;;;;17.50;15.80;;;;;;;;;;5013251;28;20514;-69
2023/05/08 13:54:21;;;;;;;10.23;9.20;;;;;;;;;;5016798;28;20971;-69
2023/05/08 13:56:48;;;;;;;10.10;9.13;;;;;;;;;;5016668;28;20921;-69
2023/05/08 13:59:16;;;;;;;9.73;8.93;;;;;;;;;;5016948;28;20501;-69
2023/05/08 14:01:44;;;;;;;7.60;7.00;;;;;;;;;;5016606;28;20445;-69
2023/05/08 14:04:11;;;;;;;7.27;6.67;;;;;;;;;;5016565;28;20456;-69
2023/05/08 14:06:39;;;;;;;7.57;6.97;;;;;;;;;;5016245;28;20945;-69
2023/05/08 14:09:06;;;;;;;5.93;5.53;;;;;;;;;;5016021;28;20449;-69
2023/05/08 14:11:33;;;;;;;6.90;6.30;;;;;;;;;;5016182;28;20470;-69
2023/05/08 14:14:00;;;;;;;5.93;5.33;;;;;;;;;;5016324;28;20447;-69
2023/05/08 14:16:28;;;;;;;6.30;5.80;;;;;;;;;;5016103;28;20451;-69
2023/05/08 14:18:57;;;;;;;6.10;5.27;;;;;;;;;;5016553;28;20446;-69
2023/05/08 14:21:24;;;;;;;5.93;5.43;;;;;;;;;;5016684;28;20447;-69
2023/05/08 14:23:52;;;;;;;5.23;4.83;;;;;;;;;;5016419;28;20456;-69
2023/05/08 14:26:19;;;;;;;6.13;5.50;;;;;;;;;;5015993;28;20573;-68
2023/05/08 14:28:47;;;;;;;6.33;5.83;;;;;;;;;;5016500;28;20449;-69